Washington Green, Connecticut
Current Conditions -  °F | °C
As of 2:50 PM on Sunday 23 Nov 2014 (Local Time) from KOXC Reporting Station
Few Clouds Few Clouds  
Wind Chill: 55°   Ceiling: Unl
Heat Index: 55°   Visibility: 10mi
Dew Point: 28°   Wind: 5mph
Humidity: 36%   Direction: NA
Pressure: 30.13"   Gusts: NA
Location:  41.6326°N, 73.2874°W
Report Text: KOXC 231950Z VRB04KT 10SM FEW070 13/M02 A3013
Loading
Personal Weather Stations






























Interactive Weather Map New forecast layout! Learn more

10-Day Weather Forecast

Advertisements
Track Severe Weather on mobile